sensor_id;sensor_type;location;lat;lon;timestamp;temperature;humidity
15749;DHT22;7976;52.526;13.326;2023-05-24T00:00:59;12.00;99.90
15749;DHT22;7976;52.526;13.326;2023-05-24T00:03:27;12.00;99.90
15749;DHT22;7976;52.526;13.326;2023-05-24T00:05:55;11.90;99.90
15749;DHT22;7976;52.526;13.326;2023-05-24T00:08:22;11.90;99.90
15749;DHT22;7976;52.526;13.326;2023-05-24T00:10:49;11.90;99.90
15749;DHT22;7976;52.526;13.326;2023-05-24T00:13:17;11.90;99.90
15749;DHT22;7976;52.526;13.326;2023-05-24T00:15:44;11.90;99.90
15749;DHT22;7976;52.526;13.326;2023-05-24T00:18:11;11.80;99.90
15749;DHT22;7976;52.526;13.326;2023-05-24T00:20:38;11.90;99.90
15749;DHT22;7976;52.526;13.326;2023-05-24T00:23:04;11.90;99.90
15749;DHT22;7976;52.526;13.326;2023-05-24T00:25:31;11.90;99.90
15749;DHT22;7976;52.526;13.326;2023-05-24T00:27:58;12.00;99.90
15749;DHT22;7976;52.526;13.326;2023-05-24T00:30:26;12.00;99.90
15749;DHT22;7976;52.526;13.326;2023-05-24T00:32:54;12.00;99.90
15749;DHT22;7976;52.526;13.326;2023-05-24T00:35:22;12.00;99.90
15749;DHT22;7976;52.526;13.326;2023-05-24T00:37:49;12.00;99.90
15749;DHT22;7976;52.526;13.326;2023-05-24T00:40:15;12.00;99.90
15749;DHT22;7976;52.526;13.326;2023-05-24T00:42:42;12.10;99.90
15749;DHT22;7976;52.526;13.326;2023-05-24T00:45:09;12.10;99.90
15749;DHT22;7976;52.526;13.326;2023-05-24T00:47:38;12.10;99.90
15749;DHT22;7976;52.526;13.326;2023-05-24T00:50:07;12.10;99.90
15749;DHT22;7976;52.526;13.326;2023-05-24T00:52:36;12.10;99.90
15749;DHT22;7976;52.526;13.326;2023-05-24T00:55:04;12.10;99.90
15749;DHT22;7976;52.526;13.326;2023-05-24T00:57:31;12.10;99.90
15749;DHT22;7976;52.526;13.326;2023-05-24T00:59:59;12.10;99.90
15749;DHT22;7976;52.526;13.326;2023-05-24T01:02:26;12.00;99.90
15749;DHT22;7976;52.526;13.326;2023-05-24T01:04:55;12.00;99.90
15749;DHT22;7976;52.526;13.326;2023-05-24T01:07:26;12.00;99.90
15749;DHT22;7976;52.526;13.326;2023-05-24T01:10:08;12.00;99.90
15749;DHT22;7976;52.526;13.326;2023-05-24T01:12:49;12.00;99.90
15749;DHT22;7976;52.526;13.326;2023-05-24T01:15:24;12.00;99.90
15749;DHT22;7976;52.526;13.326;2023-05-24T01:18:04;12.00;99.90
15749;DHT22;7976;52.526;13.326;2023-05-24T01:20:38;12.00;99.90
15749;DHT22;7976;52.526;13.326;2023-05-24T01:23:14;12.00;99.90
15749;DHT22;7976;52.526;13.326;2023-05-24T01:26:13;12.00;99.90
15749;DHT22;7976;52.526;13.326;2023-05-24T01:28:53;12.00;99.90
15749;DHT22;7976;52.526;13.326;2023-05-24T01:31:20;12.00;99.90
15749;DHT22;7976;52.526;13.326;2023-05-24T01:33:48;12.10;99.90
15749;DHT22;7976;52.526;13.326;2023-05-24T01:36:18;12.00;99.90
15749;DHT22;7976;52.526;13.326;2023-05-24T01:38:45;12.10;99.90
15749;DHT22;7976;52.526;13.326;2023-05-24T01:41:22;12.10;99.90
15749;DHT22;7976;52.526;13.326;2023-05-24T01:44:05;12.10;99.90
15749;DHT22;7976;52.526;13.326;2023-05-24T01:46:38;12.00;99.90
15749;DHT22;7976;52.526;13.326;2023-05-24T01:49:12;12.10;99.90
15749;DHT22;7976;52.526;13.326;2023-05-24T01:51:48;12.00;99.90
15749;DHT22;7976;52.526;13.326;2023-05-24T01:54:22;12.00;99.90
15749;DHT22;7976;52.526;13.326;2023-05-24T01:56:52;12.00;99.90
15749;DHT22;7976;52.526;13.326;2023-05-24T01:59:24;12.00;99.90
15749;DHT22;7976;52.526;13.326;2023-05-24T02:01:53;12.00;99.90
15749;DHT22;7976;52.526;13.326;2023-05-24T02:04:22;12.00;99.90
15749;DHT22;7976;52.526;13.326;2023-05-24T02:06:50;12.00;99.90
15749;DHT22;7976;52.526;13.326;2023-05-24T02:09:16;12.00;99.90
15749;DHT22;7976;52.526;13.326;2023-05-24T02:11:43;11.90;99.90
15749;DHT22;7976;52.526;13.326;2023-05-24T02:14:10;12.00;99.90
15749;DHT22;7976;52.526;13.326;2023-05-24T02:16:39;11.90;99.90
15749;DHT22;7976;52.526;13.326;2023-05-24T02:19:07;11.90;99.90
15749;DHT22;7976;52.526;13.326;2023-05-24T02:21:34;11.90;99.90
15749;DHT22;7976;52.526;13.326;2023-05-24T02:24:02;11.90;99.90
15749;DHT22;7976;52.526;13.326;2023-05-24T02:26:31;11.90;99.90
15749;DHT22;7976;52.526;13.326;2023-05-24T02:28:58;12.00;99.90
15749;DHT22;7976;52.526;13.326;2023-05-24T02:31:24;12.00;99.90
15749;DHT22;7976;52.526;13.326;2023-05-24T02:33:54;12.00;99.90
15749;DHT22;7976;52.526;13.326;2023-05-24T02:36:21;12.00;99.90
15749;DHT22;7976;52.526;13.326;2023-05-24T02:38:49;12.00;99.90
15749;DHT22;7976;52.526;13.326;2023-05-24T02:41:16;11.90;99.90
15749;DHT22;7976;52.526;13.326;2023-05-24T02:43:43;11.90;99.90
15749;DHT22;7976;52.526;13.326;2023-05-24T02:46:10;11.90;99.90
15749;DHT22;7976;52.526;13.326;2023-05-24T02:48:37;11.90;99.90
15749;DHT22;7976;52.526;13.326;2023-05-24T02:51:06;11.90;99.90
15749;DHT22;7976;52.526;13.326;2023-05-24T02:53:33;11.90;99.90
15749;DHT22;7976;52.526;13.326;2023-05-24T02:56:00;11.90;99.90
15749;DHT22;7976;52.526;13.326;2023-05-24T02:58:29;11.80;99.90
15749;DHT22;7976;52.526;13.326;2023-05-24T03:00:56;11.80;99.90
15749;DHT22;7976;52.526;13.326;2023-05-24T03:03:23;11.80;99.90
15749;DHT22;7976;52.526;13.326;2023-05-24T03:05:50;11.70;99.90
15749;DHT22;7976;52.526;13.326;2023-05-24T03:08:18;11.70;99.90
15749;DHT22;7976;52.526;13.326;2023-05-24T03:10:45;11.80;99.90
15749;DHT22;7976;52.526;13.326;2023-05-24T03:13:12;11.70;99.90
15749;DHT22;7976;52.526;13.326;2023-05-24T03:15:41;11.80;99.90
15749;DHT22;7976;52.526;13.326;2023-05-24T03:18:08;11.80;99.90
15749;DHT22;7976;52.526;13.326;2023-05-24T03:20:35;11.80;99.90
15749;DHT22;7976;52.526;13.326;2023-05-24T03:23:01;11.80;99.90
15749;DHT22;7976;52.526;13.326;2023-05-24T03:25:31;11.80;99.90
15749;DHT22;7976;52.526;13.326;2023-05-24T03:27:58;11.70;99.90
15749;DHT22;7976;52.526;13.326;2023-05-24T03:30:25;11.70;99.90
15749;DHT22;7976;52.526;13.326;2023-05-24T03:32:57;11.70;99.90
15749;DHT22;7976;52.526;13.326;2023-05-24T03:35:24;11.70;99.90
15749;DHT22;7976;52.526;13.326;2023-05-24T03:37:51;11.80;99.90
15749;DHT22;7976;52.526;13.326;2023-05-24T03:40:19;11.70;99.90
15749;DHT22;7976;52.526;13.326;2023-05-24T03:42:53;11.70;99.90
15749;DHT22;7976;52.526;13.326;2023-05-24T03:45:30;11.70;99.90
15749;DHT22;7976;52.526;13.326;2023-05-24T03:47:57;11.80;99.90
15749;DHT22;7976;52.526;13.326;2023-05-24T03:50:24;11.80;99.90
15749;DHT22;7976;52.526;13.326;2023-05-24T03:52:51;11.80;99.90
15749;DHT22;7976;52.526;13.326;2023-05-24T03:55:18;11.80;99.90
15749;DHT22;7976;52.526;13.326;2023-05-24T03:57:48;11.80;99.90
15749;DHT22;7976;52.526;13.326;2023-05-24T04:00:16;11.80;99.90
15749;DHT22;7976;52.526;13.326;2023-05-24T04:02:46;11.80;99.90
15749;DHT22;7976;52.526;13.326;2023-05-24T04:05:13;11.90;99.90
15749;DHT22;7976;52.526;13.326;2023-05-24T04:07:40;11.90;99.90
15749;DHT22;7976;52.526;13.326;2023-05-24T04:10:08;11.90;99.90
15749;DHT22;7976;52.526;13.326;2023-05-24T04:12:35;11.90;99.90
15749;DHT22;7976;52.526;13.326;2023-05-24T04:15:06;11.90;99.90
15749;DHT22;7976;52.526;13.326;2023-05-24T04:17:35;12.00;99.90
15749;DHT22;7976;52.526;13.326;2023-05-24T04:20:03;12.00;99.90
15749;DHT22;7976;52.526;13.326;2023-05-24T04:22:31;12.10;99.90
15749;DHT22;7976;52.526;13.326;2023-05-24T04:25:00;12.20;99.90
15749;DHT22;7976;52.526;13.326;2023-05-24T04:27:27;12.20;99.90
15749;DHT22;7976;52.526;13.326;2023-05-24T04:29:54;12.20;99.90
15749;DHT22;7976;52.526;13.326;2023-05-24T04:32:22;12.20;99.90
15749;DHT22;7976;52.526;13.326;2023-05-24T04:34:51;12.20;99.90
15749;DHT22;7976;52.526;13.326;2023-05-24T04:37:17;12.20;99.90
15749;DHT22;7976;52.526;13.326;2023-05-24T04:39:46;12.10;99.90
15749;DHT22;7976;52.526;13.326;2023-05-24T04:42:14;12.20;99.90
15749;DHT22;7976;52.526;13.326;2023-05-24T04:44:41;12.20;99.90
15749;DHT22;7976;52.526;13.326;2023-05-24T04:47:09;12.20;99.90
15749;DHT22;7976;52.526;13.326;2023-05-24T04:49:37;12.10;99.90
15749;DHT22;7976;52.526;13.326;2023-05-24T04:52:06;12.10;99.90
15749;DHT22;7976;52.526;13.326;2023-05-24T04:54:33;12.10;99.90
15749;DHT22;7976;52.526;13.326;2023-05-24T04:57:00;12.10;99.90
15749;DHT22;7976;52.526;13.326;2023-05-24T04:59:27;12.10;99.90
15749;DHT22;7976;52.526;13.326;2023-05-24T05:01:53;12.10;99.90
15749;DHT22;7976;52.526;13.326;2023-05-24T05:04:21;12.20;99.90
15749;DHT22;7976;52.526;13.326;2023-05-24T05:06:48;12.20;99.90
15749;DHT22;7976;52.526;13.326;2023-05-24T05:09:17;12.30;99.90
15749;DHT22;7976;52.526;13.326;2023-05-24T05:11:45;12.40;99.90
15749;DHT22;7976;52.526;13.326;2023-05-24T05:14:12;12.40;99.90
15749;DHT22;7976;52.526;13.326;2023-05-24T05:16:39;12.40;99.90
15749;DHT22;7976;52.526;13.326;2023-05-24T05:19:06;12.40;99.90
15749;DHT22;7976;52.526;13.326;2023-05-24T05:21:33;12.40;99.90
15749;DHT22;7976;52.526;13.326;2023-05-24T05:24:01;12.40;99.90
15749;DHT22;7976;52.526;13.326;2023-05-24T05:26:30;12.30;99.90
15749;DHT22;7976;52.526;13.326;2023-05-24T05:28:57;12.30;99.90
15749;DHT22;7976;52.526;13.326;2023-05-24T05:31:24;12.30;99.90
15749;DHT22;7976;52.526;13.326;2023-05-24T05:33:51;12.40;99.90
15749;DHT22;7976;52.526;13.326;2023-05-24T05:36:18;12.40;99.90
15749;DHT22;7976;52.526;13.326;2023-05-24T05:38:44;12.40;99.90
15749;DHT22;7976;52.526;13.326;2023-05-24T05:41:11;12.40;99.90
15749;DHT22;7976;52.526;13.326;2023-05-24T05:43:40;12.40;99.90
15749;DHT22;7976;52.526;13.326;2023-05-24T05:46:06;12.40;99.90
15749;DHT22;7976;52.526;13.326;2023-05-24T05:48:36;12.40;99.90
15749;DHT22;7976;52.526;13.326;2023-05-24T05:51:03;12.40;99.90
15749;DHT22;7976;52.526;13.326;2023-05-24T05:53:34;12.40;99.90
15749;DHT22;7976;52.526;13.326;2023-05-24T05:56:01;12.40;99.90
15749;DHT22;7976;52.526;13.326;2023-05-24T05:58:28;12.50;99.90
15749;DHT22;7976;52.526;13.326;2023-05-24T06:00:56;12.50;99.90
15749;DHT22;7976;52.526;13.326;2023-05-24T06:03:23;12.50;99.90
15749;DHT22;7976;52.526;13.326;2023-05-24T06:05:49;12.50;99.90
15749;DHT22;7976;52.526;13.326;2023-05-24T06:08:16;12.50;99.90
15749;DHT22;7976;52.526;13.326;2023-05-24T06:10:43;12.50;99.90
15749;DHT22;7976;52.526;13.326;2023-05-24T06:13:10;12.50;99.90
15749;DHT22;7976;52.526;13.326;2023-05-24T06:15:38;12.60;99.90
15749;DHT22;7976;52.526;13.326;2023-05-24T06:18:09;12.60;99.90
15749;DHT22;7976;52.526;13.326;2023-05-24T06:20:35;12.60;99.90
15749;DHT22;7976;52.526;13.326;2023-05-24T06:23:03;12.70;99.90
15749;DHT22;7976;52.526;13.326;2023-05-24T06:25:30;12.70;99.90
15749;DHT22;7976;52.526;13.326;2023-05-24T06:27:57;12.70;99.90
15749;DHT22;7976;52.526;13.326;2023-05-24T06:30:24;12.80;99.90
15749;DHT22;7976;52.526;13.326;2023-05-24T06:32:51;12.80;99.90
15749;DHT22;7976;52.526;13.326;2023-05-24T06:35:19;12.80;99.90
15749;DHT22;7976;52.526;13.326;2023-05-24T06:37:46;12.90;99.90
15749;DHT22;7976;52.526;13.326;2023-05-24T06:40:13;12.90;99.90
15749;DHT22;7976;52.526;13.326;2023-05-24T06:42:40;12.90;99.90
15749;DHT22;7976;52.526;13.326;2023-05-24T06:45:08;13.00;99.90
15749;DHT22;7976;52.526;13.326;2023-05-24T06:47:35;13.00;99.90
15749;DHT22;7976;52.526;13.326;2023-05-24T06:50:03;13.10;99.90
15749;DHT22;7976;52.526;13.326;2023-05-24T06:52:32;13.20;99.90
15749;DHT22;7976;52.526;13.326;2023-05-24T06:54:59;13.20;99.90
15749;DHT22;7976;52.526;13.326;2023-05-24T06:57:26;13.30;99.90
15749;DHT22;7976;52.526;13.326;2023-05-24T06:59:52;13.30;99.90
15749;DHT22;7976;52.526;13.326;2023-05-24T07:02:19;13.20;99.90
15749;DHT22;7976;52.526;13.326;2023-05-24T07:04:50;13.20;99.90
15749;DHT22;7976;52.526;13.326;2023-05-24T07:11:25;13.10;99.90
15749;DHT22;7976;52.526;13.326;2023-05-24T07:22:06;13.20;99.90
15749;DHT22;7976;52.526;13.326;2023-05-24T07:24:33;13.30;99.90
15749;DHT22;7976;52.526;13.326;2023-05-24T07:27:01;13.40;99.90
15749;DHT22;7976;52.526;13.326;2023-05-24T07:33:36;13.60;99.90
15749;DHT22;7976;52.526;13.326;2023-05-24T07:36:04;13.70;99.90
15749;DHT22;7976;52.526;13.326;2023-05-24T07:38:32;13.70;99.90
15749;DHT22;7976;52.526;13.326;2023-05-24T07:41:00;13.70;99.90
15749;DHT22;7976;52.526;13.326;2023-05-24T07:43:30;13.80;99.90
15749;DHT22;7976;52.526;13.326;2023-05-24T07:45:57;13.80;99.90
15749;DHT22;7976;52.526;13.326;2023-05-24T07:48:24;13.90;99.90
15749;DHT22;7976;52.526;13.326;2023-05-24T07:50:52;13.90;99.90
15749;DHT22;7976;52.526;13.326;2023-05-24T07:53:19;14.00;99.90
15749;DHT22;7976;52.526;13.326;2023-05-24T07:55:47;14.00;99.90
15749;DHT22;7976;52.526;13.326;2023-05-24T07:58:15;14.00;99.90
15749;DHT22;7976;52.526;13.326;2023-05-24T08:00:43;14.10;99.90
15749;DHT22;7976;52.526;13.326;2023-05-24T08:03:11;14.10;99.90
15749;DHT22;7976;52.526;13.326;2023-05-24T08:05:40;14.30;99.90
15749;DHT22;7976;52.526;13.326;2023-05-24T08:08:07;14.30;99.90
15749;DHT22;7976;52.526;13.326;2023-05-24T08:10:35;14.40;99.90
15749;DHT22;7976;52.526;13.326;2023-05-24T08:13:02;14.40;99.90
15749;DHT22;7976;52.526;13.326;2023-05-24T08:15:30;14.40;99.90
15749;DHT22;7976;52.526;13.326;2023-05-24T08:17:58;14.30;99.90
15749;DHT22;7976;52.526;13.326;2023-05-24T08:20:26;14.40;99.90
15749;DHT22;7976;52.526;13.326;2023-05-24T08:22:53;14.40;99.90
15749;DHT22;7976;52.526;13.326;2023-05-24T08:25:20;14.40;99.90
15749;DHT22;7976;52.526;13.326;2023-05-24T08:27:47;14.40;99.90
15749;DHT22;7976;52.526;13.326;2023-05-24T08:30:14;14.40;99.90
15749;DHT22;7976;52.526;13.326;2023-05-24T08:32:42;14.40;99.90
15749;DHT22;7976;52.526;13.326;2023-05-24T08:35:11;14.40;99.90
15749;DHT22;7976;52.526;13.326;2023-05-24T08:37:38;14.30;99.90
15749;DHT22;7976;52.526;13.326;2023-05-24T08:40:07;14.30;99.90
15749;DHT22;7976;52.526;13.326;2023-05-24T08:42:37;14.30;99.90
15749;DHT22;7976;52.526;13.326;2023-05-24T08:45:12;14.10;99.90
15749;DHT22;7976;52.526;13.326;2023-05-24T08:47:40;14.00;99.90
15749;DHT22;7976;52.526;13.326;2023-05-24T08:50:08;14.10;99.90
15749;DHT22;7976;52.526;13.326;2023-05-24T08:52:38;14.10;99.90
15749;DHT22;7976;52.526;13.326;2023-05-24T08:55:08;14.10;99.90
15749;DHT22;7976;52.526;13.326;2023-05-24T08:57:36;14.30;99.90
15749;DHT22;7976;52.526;13.326;2023-05-24T09:00:07;14.30;99.90
15749;DHT22;7976;52.526;13.326;2023-05-24T09:02:37;14.40;99.90
15749;DHT22;7976;52.526;13.326;2023-05-24T09:05:08;14.50;99.90
15749;DHT22;7976;52.526;13.326;2023-05-24T09:07:39;14.40;99.90
15749;DHT22;7976;52.526;13.326;2023-05-24T09:10:09;14.50;99.90
15749;DHT22;7976;52.526;13.326;2023-05-24T09:12:38;14.50;99.90
15749;DHT22;7976;52.526;13.326;2023-05-24T09:15:10;14.50;99.90
15749;DHT22;7976;52.526;13.326;2023-05-24T09:17:37;14.60;99.90
15749;DHT22;7976;52.526;13.326;2023-05-24T09:20:06;14.60;99.90
15749;DHT22;7976;52.526;13.326;2023-05-24T09:22:36;14.50;99.90
15749;DHT22;7976;52.526;13.326;2023-05-24T09:25:07;14.50;99.90
15749;DHT22;7976;52.526;13.326;2023-05-24T09:27:36;14.50;99.90
15749;DHT22;7976;52.526;13.326;2023-05-24T09:30:07;14.50;99.90
15749;DHT22;7976;52.526;13.326;2023-05-24T09:32:37;14.50;99.90
15749;DHT22;7976;52.526;13.326;2023-05-24T09:35:07;14.50;99.90
15749;DHT22;7976;52.526;13.326;2023-05-24T09:37:35;14.60;99.90
15749;DHT22;7976;52.526;13.326;2023-05-24T09:40:05;14.60;99.90
15749;DHT22;7976;52.526;13.326;2023-05-24T09:42:43;14.50;99.90
15749;DHT22;7976;52.526;13.326;2023-05-24T09:45:11;14.50;99.90
15749;DHT22;7976;52.526;13.326;2023-05-24T09:47:39;14.50;99.90
15749;DHT22;7976;52.526;13.326;2023-05-24T09:50:12;14.60;99.90
15749;DHT22;7976;52.526;13.326;2023-05-24T09:52:42;14.60;99.90
15749;DHT22;7976;52.526;13.326;2023-05-24T09:55:14;14.60;99.90
15749;DHT22;7976;52.526;13.326;2023-05-24T09:57:42;14.60;99.90
15749;DHT22;7976;52.526;13.326;2023-05-24T10:00:11;14.70;99.90
15749;DHT22;7976;52.526;13.326;2023-05-24T10:02:42;14.70;99.90
15749;DHT22;7976;52.526;13.326;2023-05-24T10:05:10;14.80;99.90
15749;DHT22;7976;52.526;13.326;2023-05-24T10:07:39;14.70;99.90
15749;DHT22;7976;52.526;13.326;2023-05-24T10:10:09;14.70;99.90
15749;DHT22;7976;52.526;13.326;2023-05-24T10:12:37;14.70;99.90
15749;DHT22;7976;52.526;13.326;2023-05-24T10:15:09;14.70;99.90
15749;DHT22;7976;52.526;13.326;2023-05-24T10:21:44;14.90;99.90
15749;DHT22;7976;52.526;13.326;2023-05-24T10:28:21;15.40;99.90
15749;DHT22;7976;52.526;13.326;2023-05-24T10:35:31;15.80;99.90
15749;DHT22;7976;52.526;13.326;2023-05-24T10:38:04;16.50;99.90
15749;DHT22;7976;52.526;13.326;2023-05-24T10:40:33;16.90;99.90
15749;DHT22;7976;52.526;13.326;2023-05-24T10:43:03;17.10;99.90
15749;DHT22;7976;52.526;13.326;2023-05-24T10:45:35;17.20;99.90
15749;DHT22;7976;52.526;13.326;2023-05-24T10:48:32;17.20;99.90
15749;DHT22;7976;52.526;13.326;2023-05-24T10:51:02;17.10;99.90
15749;DHT22;7976;52.526;13.326;2023-05-24T10:54:10;17.10;99.90
15749;DHT22;7976;52.526;13.326;2023-05-24T10:56:42;17.00;99.90
15749;DHT22;7976;52.526;13.326;2023-05-24T10:59:22;16.80;99.90
15749;DHT22;7976;52.526;13.326;2023-05-24T11:01:55;16.50;99.90
15749;DHT22;7976;52.526;13.326;2023-05-24T11:04:23;16.30;99.90
15749;DHT22;7976;52.526;13.326;2023-05-24T11:06:54;16.10;99.90
15749;DHT22;7976;52.526;13.326;2023-05-24T11:09:23;15.90;99.90
15749;DHT22;7976;52.526;13.326;2023-05-24T11:11:54;15.80;99.90
15749;DHT22;7976;52.526;13.326;2023-05-24T11:14:23;15.80;99.90
15749;DHT22;7976;52.526;13.326;2023-05-24T11:16:55;15.70;99.90
15749;DHT22;7976;52.526;13.326;2023-05-24T11:19:29;15.50;99.90
15749;DHT22;7976;52.526;13.326;2023-05-24T11:22:00;15.40;99.90
15749;DHT22;7976;52.526;13.326;2023-05-24T11:24:28;15.50;99.90
15749;DHT22;7976;52.526;13.326;2023-05-24T11:26:56;15.50;99.90
15749;DHT22;7976;52.526;13.326;2023-05-24T11:29:26;15.50;99.90
15749;DHT22;7976;52.526;13.326;2023-05-24T11:31:57;15.70;99.90
15749;DHT22;7976;52.526;13.326;2023-05-24T11:34:29;15.90;99.90
15749;DHT22;7976;52.526;13.326;2023-05-24T11:36:57;16.00;99.90
15749;DHT22;7976;52.526;13.326;2023-05-24T11:39:28;16.30;99.90
15749;DHT22;7976;52.526;13.326;2023-05-24T11:41:56;16.50;99.90
15749;DHT22;7976;52.526;13.326;2023-05-24T11:44:23;16.60;99.90
15749;DHT22;7976;52.526;13.326;2023-05-24T11:46:57;16.80;99.90
15749;DHT22;7976;52.526;13.326;2023-05-24T11:49:25;17.10;99.90
15749;DHT22;7976;52.526;13.326;2023-05-24T11:51:53;17.30;99.90
15749;DHT22;7976;52.526;13.326;2023-05-24T11:54:21;17.40;99.90
15749;DHT22;7976;52.526;13.326;2023-05-24T11:56:49;17.30;99.90
15749;DHT22;7976;52.526;13.326;2023-05-24T11:59:19;17.20;99.90
15749;DHT22;7976;52.526;13.326;2023-05-24T12:01:56;17.10;99.90
15749;DHT22;7976;52.526;13.326;2023-05-24T12:04:25;16.90;99.90
15749;DHT22;7976;52.526;13.326;2023-05-24T12:06:52;16.80;99.90
15749;DHT22;7976;52.526;13.326;2023-05-24T12:09:20;16.70;99.90
15749;DHT22;7976;52.526;13.326;2023-05-24T12:11:49;16.70;99.90
15749;DHT22;7976;52.526;13.326;2023-05-24T12:14:18;16.60;99.90
15749;DHT22;7976;52.526;13.326;2023-05-24T12:16:48;16.60;99.90
15749;DHT22;7976;52.526;13.326;2023-05-24T12:19:17;16.60;99.90
15749;DHT22;7976;52.526;13.326;2023-05-24T12:21:46;16.70;99.90
15749;DHT22;7976;52.526;13.326;2023-05-24T12:24:15;16.80;99.90
15749;DHT22;7976;52.526;13.326;2023-05-24T12:26:45;16.70;99.90
15749;DHT22;7976;52.526;13.326;2023-05-24T12:29:14;16.70;99.90
15749;DHT22;7976;52.526;13.326;2023-05-24T12:31:43;16.80;99.90
15749;DHT22;7976;52.526;13.326;2023-05-24T12:34:13;16.90;99.90
15749;DHT22;7976;52.526;13.326;2023-05-24T12:36:43;17.00;99.90
15749;DHT22;7976;52.526;13.326;2023-05-24T12:39:17;17.10;99.90
15749;DHT22;7976;52.526;13.326;2023-05-24T12:41:49;17.20;99.90
15749;DHT22;7976;52.526;13.326;2023-05-24T12:44:17;17.30;99.90
15749;DHT22;7976;52.526;13.326;2023-05-24T12:46:48;17.50;99.90
15749;DHT22;7976;52.526;13.326;2023-05-24T12:49:17;17.60;99.90
15749;DHT22;7976;52.526;13.326;2023-05-24T12:51:45;17.90;99.90
15749;DHT22;7976;52.526;13.326;2023-05-24T12:54:13;18.10;99.90
15749;DHT22;7976;52.526;13.326;2023-05-24T12:56:40;18.10;99.90
15749;DHT22;7976;52.526;13.326;2023-05-24T12:59:07;18.00;99.90
15749;DHT22;7976;52.526;13.326;2023-05-24T13:01:34;17.90;99.90
15749;DHT22;7976;52.526;13.326;2023-05-24T13:04:02;17.80;99.90
15749;DHT22;7976;52.526;13.326;2023-05-24T13:06:29;17.60;99.90
15749;DHT22;7976;52.526;13.326;2023-05-24T13:08:57;17.60;99.90
15749;DHT22;7976;52.526;13.326;2023-05-24T13:11:24;17.50;99.90
15749;DHT22;7976;52.526;13.326;2023-05-24T13:13:52;17.50;99.90
15749;DHT22;7976;52.526;13.326;2023-05-24T13:16:19;17.60;99.90
15749;DHT22;7976;52.526;13.326;2023-05-24T13:18:45;17.70;99.90
15749;DHT22;7976;52.526;13.326;2023-05-24T13:21:12;17.70;99.90
15749;DHT22;7976;52.526;13.326;2023-05-24T13:23:39;17.70;99.90
15749;DHT22;7976;52.526;13.326;2023-05-24T13:26:09;17.80;99.90
15749;DHT22;7976;52.526;13.326;2023-05-24T13:28:35;17.90;99.90
15749;DHT22;7976;52.526;13.326;2023-05-24T13:31:03;18.00;99.90
15749;DHT22;7976;52.526;13.326;2023-05-24T13:33:31;18.10;99.90
15749;DHT22;7976;52.526;13.326;2023-05-24T13:35:58;18.20;99.90
15749;DHT22;7976;52.526;13.326;2023-05-24T13:38:25;18.30;99.90
15749;DHT22;7976;52.526;13.326;2023-05-24T13:40:54;18.20;99.90
15749;DHT22;7976;52.526;13.326;2023-05-24T13:43:22;18.20;99.90
15749;DHT22;7976;52.526;13.326;2023-05-24T13:45:49;18.00;99.90
15749;DHT22;7976;52.526;13.326;2023-05-24T13:48:16;17.80;99.90
15749;DHT22;7976;52.526;13.326;2023-05-24T13:50:43;17.60;99.90
15749;DHT22;7976;52.526;13.326;2023-05-24T13:53:10;17.60;99.90
15749;DHT22;7976;52.526;13.326;2023-05-24T13:55:37;17.60;99.90
15749;DHT22;7976;52.526;13.326;2023-05-24T13:58:05;17.70;99.90
15749;DHT22;7976;52.526;13.326;2023-05-24T14:00:33;17.90;99.90
15749;DHT22;7976;52.526;13.326;2023-05-24T14:03:00;17.90;99.90
15749;DHT22;7976;52.526;13.326;2023-05-24T14:05:29;17.90;99.90
15749;DHT22;7976;52.526;13.326;2023-05-24T14:07:57;18.10;99.90
15749;DHT22;7976;52.526;13.326;2023-05-24T14:10:31;18.10;99.90
15749;DHT22;7976;52.526;13.326;2023-05-24T14:12:58;18.20;99.90
15749;DHT22;7976;52.526;13.326;2023-05-24T14:15:25;18.20;99.90
15749;DHT22;7976;52.526;13.326;2023-05-24T14:17:53;18.20;99.90
15749;DHT22;7976;52.526;13.326;2023-05-24T14:24:29;18.30;99.90
15749;DHT22;7976;52.526;13.326;2023-05-24T14:26:56;18.50;99.90
15749;DHT22;7976;52.526;13.326;2023-05-24T14:29:23;18.60;99.90
15749;DHT22;7976;52.526;13.326;2023-05-24T14:31:49;18.70;99.90
15749;DHT22;7976;52.526;13.326;2023-05-24T14:34:17;18.80;99.90
15749;DHT22;7976;52.526;13.326;2023-05-24T14:36:44;18.80;99.90
15749;DHT22;7976;52.526;13.326;2023-05-24T14:39:12;18.80;99.90
15749;DHT22;7976;52.526;13.326;2023-05-24T14:41:40;18.70;99.90
15749;DHT22;7976;52.526;13.326;2023-05-24T14:44:07;18.50;99.90
15749;DHT22;7976;52.526;13.326;2023-05-24T14:46:34;18.20;99.90
15749;DHT22;7976;52.526;13.326;2023-05-24T14:49:01;17.90;99.90
15749;DHT22;7976;52.526;13.326;2023-05-24T14:51:29;17.70;99.90
15749;DHT22;7976;52.526;13.326;2023-05-24T14:53:56;17.70;99.90
15749;DHT22;7976;52.526;13.326;2023-05-24T14:56:22;17.70;99.90
15749;DHT22;7976;52.526;13.326;2023-05-24T14:58:49;17.70;99.90
15749;DHT22;7976;52.526;13.326;2023-05-24T15:01:16;17.80;99.90
15749;DHT22;7976;52.526;13.326;2023-05-24T15:03:43;17.70;99.90
15749;DHT22;7976;52.526;13.326;2023-05-24T15:06:10;17.80;99.90
15749;DHT22;7976;52.526;13.326;2023-05-24T15:08:38;17.90;99.90
15749;DHT22;7976;52.526;13.326;2023-05-24T15:11:05;18.00;99.90
15749;DHT22;7976;52.526;13.326;2023-05-24T15:13:31;18.00;99.90
15749;DHT22;7976;52.526;13.326;2023-05-24T15:15:59;18.10;99.90
15749;DHT22;7976;52.526;13.326;2023-05-24T15:18:28;18.20;99.90
15749;DHT22;7976;52.526;13.326;2023-05-24T15:20:56;18.20;99.90
15749;DHT22;7976;52.526;13.326;2023-05-24T15:23:23;18.20;99.90
15749;DHT22;7976;52.526;13.326;2023-05-24T15:25:52;18.20;99.90
15749;DHT22;7976;52.526;13.326;2023-05-24T15:28:19;18.20;99.90
15749;DHT22;7976;52.526;13.326;2023-05-24T15:30:46;18.20;99.90
15749;DHT22;7976;52.526;13.326;2023-05-24T15:33:13;18.20;99.90
15749;DHT22;7976;52.526;13.326;2023-05-24T15:35:41;18.20;99.90
15749;DHT22;7976;52.526;13.326;2023-05-24T15:38:08;18.20;99.90
15749;DHT22;7976;52.526;13.326;2023-05-24T15:40:35;18.20;99.90
15749;DHT22;7976;52.526;13.326;2023-05-24T15:43:07;18.10;99.90
15749;DHT22;7976;52.526;13.326;2023-05-24T15:45:34;18.00;99.90
15749;DHT22;7976;52.526;13.326;2023-05-24T15:48:01;17.80;99.90
15749;DHT22;7976;52.526;13.326;2023-05-24T15:50:29;17.80;99.90
15749;DHT22;7976;52.526;13.326;2023-05-24T15:52:56;17.80;99.90
15749;DHT22;7976;52.526;13.326;2023-05-24T15:55:23;17.80;99.90
15749;DHT22;7976;52.526;13.326;2023-05-24T15:57:50;17.80;99.90
15749;DHT22;7976;52.526;13.326;2023-05-24T16:00:19;17.70;99.90
15749;DHT22;7976;52.526;13.326;2023-05-24T16:02:49;17.70;99.90
15749;DHT22;7976;52.526;13.326;2023-05-24T16:05:16;17.70;99.90
15749;DHT22;7976;52.526;13.326;2023-05-24T16:07:43;17.60;99.90
15749;DHT22;7976;52.526;13.326;2023-05-24T16:10:10;17.50;99.90
15749;DHT22;7976;52.526;13.326;2023-05-24T16:12:38;17.50;99.90